WetterOnline ( https://www.wetteronline.de )

Wetter aktuell Pingelshagen

Aktuelles Wetter: Schwerin (68m)

6-stündlich | Neueste Meldungen
Ortszeit Temperatur Wetter
Mi, 17.07. 2:00 12.3° C leicht bewölkt
Di, 16.07. 20:00 18.3° C leicht bewölkt
Di, 16.07. 14:00 19.2° C bewölkt
Di, 16.07. 8:00 13.9° C bedeckt
Di, 16.07. 2:00 13.9° C bedeckt
Mo, 15.07. 20:00 15.3° C bedeckt
Mo, 15.07. 14:00 15.0° C bedeckt
Mo, 15.07. 8:00 12.8° C bedeckt
Ortszeit Temperatur Wetter
Mi, 17.07. 4:00 11.6° C wolkig
Mi, 17.07. 3:50 11.6° C wolkig
Mi, 17.07. 3:40 11.7° C leicht bewölkt
Mi, 17.07. 3:30 11.8° C leicht bewölkt
Mi, 17.07. 3:20 11.8° C leicht bewölkt
Mi, 17.07. 3:10 11.7° C fast wolkenlos
Mi, 17.07. 3:00 11.8° C wolkenlos
Mi, 17.07. 2:30 12.0° C wolkenlos
Mi, 17.07. 2:00 12.3° C leicht bewölkt
Mi, 17.07. 1:30 12.6° C leicht bewölkt
Mi, 17.07. 1:00 12.9° C leicht bewölkt
Ortszeit Relative Feuchte Sichtweite
Mi, 17.07. 2:00 87% 25 km
Di, 16.07. 20:00 65% 45 km
Di, 16.07. 14:00 63% 60 km
Di, 16.07. 8:00 83% 35 km
Di, 16.07. 2:00 81% 30 km
Mo, 15.07. 20:00 66% 50 km
Mo, 15.07. 14:00 71% 40 km
Mo, 15.07. 8:00 77% 35 km
Ortszeit Relative Feuchte Sichtweite
Mi, 17.07. 4:00 91% 21 km
Mi, 17.07. 3:50 91% -
Mi, 17.07. 3:40 90% -
Mi, 17.07. 3:30 89% 23 km
Mi, 17.07. 3:20 89% -
Mi, 17.07. 3:10 90% -
Mi, 17.07. 3:00 90% 20 km
Mi, 17.07. 2:30 88% 21 km
Mi, 17.07. 2:00 87% 25 km
Mi, 17.07. 1:30 86% 25 km
Mi, 17.07. 1:00 84% 28 km
Ortszeit Niederschlagsmenge Niederschlagsart
Mi, 17.07. 2:00 0.0 l/m2 in 6 Std. -
Di, 16.07. 20:00 0.1 l/m2 in 12 Std. -
Di, 16.07. 14:00 0.1 l/m2 in 6 Std. Regen
Di, 16.07. 8:00 0.1 l/m2 in 12 Std. -
Di, 16.07. 2:00 0.1 l/m2 in 6 Std. Sprühregen, Niederschlag
Mo, 15.07. 20:00 0.0 l/m2 in 12 Std. -
Mo, 15.07. 14:00 0.0 l/m2 in 6 Std. -
Mo, 15.07. 8:00 0.1 l/m2 in 12 Std. Regen
Ortszeit Niederschlagsmenge Niederschlagsart
Mi, 17.07. 4:00 0.0 l/m2 in 1 Std. -
Mi, 17.07. 3:50 keine Meldung -
Mi, 17.07. 3:40 keine Meldung -
Mi, 17.07. 3:30 0.0 l/m2 in 1 Std. -
Mi, 17.07. 3:20 keine Meldung -
Mi, 17.07. 3:10 keine Meldung -
Mi, 17.07. 3:00 0.0 l/m2 in 1 Std. -
Mi, 17.07. 2:30 0.0 l/m2 in 1 Std. -
Mi, 17.07. 2:00 0.0 l/m2 in 1 Std. -
Mi, 17.07. 1:30 0.0 l/m2 in 1 Std. -
Mi, 17.07. 1:00 0.0 l/m2 in 1 Std. -
Ortszeit Stärke Spitze Richtung
km/h Bft. km/h Grad Sektor
Mi, 17.07. 2:00 11 2 36 280° W
Di, 16.07. 20:00 22 4 40 270° W
Di, 16.07. 14:00 24 4 41 270° W
Di, 16.07. 8:00 14 3 29 290° W
Di, 16.07. 2:00 17 3 35 280° W
Mo, 15.07. 20:00 20 4 43 270° W
Mo, 15.07. 14:00 24 4 39 260° W
Mo, 15.07. 8:00 11 2 25 290° W
Ortszeit Stärke Spitze Richtung
km/h Bft. km/h Grad Sektor
Mi, 17.07. 4:00 9 2 19 280° W
Mi, 17.07. 3:50 9 2 - 280° W
Mi, 17.07. 3:40 9 2 - 280° W
Mi, 17.07. 3:30 9 2 19 290° W
Mi, 17.07. 3:20 9 2 - 290° W
Mi, 17.07. 3:10 11 2 - 280° W
Mi, 17.07. 3:00 11 2 18 290° W
Mi, 17.07. 2:30 9 2 17 290° W
Mi, 17.07. 2:00 11 2 22 280° W
Mi, 17.07. 1:30 11 2 18 280° W
Mi, 17.07. 1:00 13 3 22 290° W
Ortszeit Untergrenze Bedeckung Gattung
total tief tief mittel hoch
Mi, 17.07. 2:00 1140 m 3/8 2/8 - - -
Di, 16.07. 20:00 8100 m 8/8 0/8 - - -
Di, 16.07. 14:00 900 m 7/8 7/8 - - -
Di, 16.07. 8:00 390 m 8/8 8/8 - - -
Di, 16.07. 2:00 510 m 8/8 8/8 - - -
Mo, 15.07. 20:00 960 m 8/8 8/8 - - -
Mo, 15.07. 14:00 690 m 8/8 8/8 - - -
Mo, 15.07. 8:00 510 m 8/8 8/8 - - -
Ortszeit Bedeckungsgrad in Achtel und Wolkenuntergrenze
Mi, 17.07. 4:00 4(300m) 5(930m)
Mi, 17.07. 3:50 4(300m) 5(930m)
Mi, 17.07. 3:40 3(930m)
Mi, 17.07. 3:30 4(930m)
Mi, 17.07. 3:20 4(930m)
Mi, 17.07. 3:10 1(960m)
Mi, 17.07. 3:00 keine Wolken
Mi, 17.07. 2:30 keine Wolken
Mi, 17.07. 2:00 2(1140m) 3(7500m)
Mi, 17.07. 1:30 3(1110m) 4(8400m) 4(8100m)
Mi, 17.07. 1:00 2(1140m) 5(8400m)
Ortszeit Luftdruck NN (hPa) Tendenz (hPa in 3 Std.)
Mi, 17.07. 2:00 1016 0,0
Di, 16.07. 20:00 1014 + 0,8
Di, 16.07. 14:00 1013 - 0,5
Di, 16.07. 8:00 1014 0,0
Di, 16.07. 2:00 1014 - 0,6
Mo, 15.07. 20:00 1015 - 0,5
Mo, 15.07. 14:00 1016 - 0,5
Mo, 15.07. 8:00 1017 - 0,2
Ortszeit Luftdruck NN (hPa) Tendenz (hPa in 3 Std.)
Mi, 17.07. 4:00 1015 - 0,4
Mi, 17.07. 3:50 1015 keine Meldung
Mi, 17.07. 3:40 1015 keine Meldung
Mi, 17.07. 3:30 1015 - 0,2
Mi, 17.07. 3:20 1015 keine Meldung
Mi, 17.07. 3:10 1015 keine Meldung
Mi, 17.07. 3:00 1015 - 0,1
Mi, 17.07. 2:30 1016 + 0,1
Mi, 17.07. 2:00 1016 0,0
Mi, 17.07. 1:30 1016 + 0,2
Mi, 17.07. 1:00 1016 + 0,4
Ortszeit Schneehöhe (cm)
Mi, 17.07. 2:00 -
Di, 16.07. 20:00 -
Di, 16.07. 14:00 -
Di, 16.07. 8:00 -
Di, 16.07. 2:00 -
Mo, 15.07. 20:00 -
Mo, 15.07. 14:00 -
Mo, 15.07. 8:00 -
Ortszeit Schneehöhe (cm)
Mi, 17.07. 4:00 -
Mi, 17.07. 3:50 -
Mi, 17.07. 3:40 -
Mi, 17.07. 3:30 -
Mi, 17.07. 3:20 -
Mi, 17.07. 3:10 -
Mi, 17.07. 3:00 -
Mi, 17.07. 2:30 -
Mi, 17.07. 2:00 -
Mi, 17.07. 1:30 -
Mi, 17.07. 1:00 -
Link zu dieser Seite / Seite empfehlen

Das Wetter in ...